Time;durP1;ratioP1;P1;durP2;ratioP2;P2;SDS_P1;SDS_P2;PMS_P1;PMS_P2;Temp;Humidity;BMP_temperature;BMP_pressure;BME280_temperature;BME280_humidity;BME280_pressure;Samples;Min_cycle;Max_cycle;Signal;HPM_P1;HPM_P2
2022/12/10 00:03:49;;;;;;;18.70;9.53;;;6.60;99.90;;;4.30;100.00;98475.41;10618468;27;20059;-79
2022/12/10 00:08:53;;;;;;;21.23;9.23;;;6.60;99.90;;;4.30;100.00;98479.84;10616917;27;20137;-78
2022/12/10 00:13:57;;;;;;;25.80;12.23;;;6.60;99.90;;;4.29;100.00;98476.38;10607300;27;20055;-79
2022/12/10 00:19:01;;;;;;;23.60;10.87;;;6.60;99.90;;;4.29;100.00;98484.28;10601783;27;20059;-78
2022/12/10 00:24:05;;;;;;;20.80;11.17;;;6.60;99.90;;;4.29;100.00;98488.72;10592146;27;20503;-78
2022/12/10 00:29:11;;;;;;;20.13;9.60;;;6.60;99.90;;;4.29;100.00;98504.50;10609683;27;20062;-79
2022/12/10 00:34:14;;;;;;;17.93;8.57;;;6.60;99.90;;;4.31;100.00;98507.78;10582859;27;20063;-78
2022/12/10 00:39:20;;;;;;;16.80;8.43;;;6.60;99.90;;;4.32;100.00;98504.19;10570652;27;20083;-78
2022/12/10 00:44:23;;;;;;;17.77;7.10;;;6.60;99.90;;;4.35;100.00;98516.16;10642371;27;20063;-79
2022/12/10 00:49:26;;;;;;;17.00;7.20;;;6.60;99.90;;;4.36;100.00;98521.22;10606052;27;20051;-78
2022/12/10 00:54:29;;;;;;;30.50;14.20;;;6.70;99.90;;;4.40;100.00;98517.28;10582680;27;20060;-78
2022/12/10 00:59:32;;;;;;;23.37;11.30;;;6.70;99.90;;;4.41;100.00;98524.19;10564855;28;20427;-77
2022/12/10 01:04:35;;;;;;;20.43;9.57;;;6.70;99.90;;;4.42;100.00;98525.00;10580542;27;20055;-77
2022/12/10 01:09:37;;;;;;;21.17;11.17;;;6.70;99.90;;;4.41;100.00;98518.91;10623494;27;20063;-78
2022/12/10 01:14:41;;;;;;;22.43;9.93;;;6.70;99.90;;;4.42;100.00;98507.41;10606267;27;20059;-78
2022/12/10 01:19:44;;;;;;;14.63;7.90;;;6.70;99.90;;;4.43;100.00;98521.38;10620706;27;20063;-78
2022/12/10 01:24:47;;;;;;;14.07;6.90;;;6.70;99.90;;;4.39;100.00;98515.66;10585775;27;20055;-77
2022/12/10 01:29:50;;;;;;;13.83;6.80;;;6.70;99.90;;;4.38;100.00;98523.69;10605726;27;20117;-78
2022/12/10 01:34:52;;;;;;;10.57;5.93;;;6.70;99.90;;;4.36;100.00;98515.97;10595322;27;20442;-78
2022/12/10 01:39:55;;;;;;;10.90;5.53;;;6.60;99.90;;;4.34;100.00;98523.22;10591735;27;20066;-78
2022/12/10 01:45:05;;;;;;;13.77;7.07;;;6.60;99.90;;;4.29;100.00;98522.91;10641314;27;20064;-78
2022/12/10 01:50:08;;;;;;;12.50;5.57;;;6.60;99.90;;;4.32;100.00;98534.88;10584093;27;20531;-78
2022/12/10 01:55:41;;;;;;;15.33;6.63;;;6.60;99.90;;;4.37;100.00;98511.53;10584865;27;20083;-78
2022/12/10 02:01:26;;;;;;;;;;;6.60;99.90;;;4.40;100.00;98538.31;10622209;27;20071;-78
2022/12/10 02:07:14;;;;;;;18.17;7.30;;;6.60;99.90;;;4.44;100.00;98531.75;10584148;27;19927;-78
2022/12/10 02:12:49;;;;;;;16.13;7.73;;;6.70;99.90;;;4.44;100.00;98547.53;10618126;27;20056;-78
2022/12/10 02:18:08;;;;;;;17.60;8.00;;;6.70;99.90;;;4.38;100.00;98561.34;10591550;27;20062;-78
2022/12/10 02:23:15;;;;;;;12.37;5.67;;;6.70;99.90;;;4.38;100.00;98566.63;10606682;27;20062;-78
2022/12/10 02:28:45;;;;;;;15.23;6.27;;;6.60;99.90;;;4.49;100.00;98568.03;10603294;27;20071;-78
2022/12/10 02:33:56;;;;;;;18.53;7.40;;;6.70;99.90;;;4.57;100.00;98565.41;10625644;27;20055;-78
2022/12/10 02:39:03;;;;;;;20.25;7.93;;;6.70;99.90;;;4.57;100.00;98550.44;10588778;27;20055;-78
2022/12/10 02:44:12;;;;;;;17.50;7.63;;;6.70;99.90;;;4.54;100.00;98549.94;10581612;27;20063;-78
2022/12/10 02:49:17;;;;;;;19.23;6.87;;;6.70;99.90;;;4.55;100.00;98564.75;10578530;27;20142;-78
2022/12/10 02:54:40;;;;;;;14.37;6.80;;;6.70;99.90;;;4.53;100.00;98558.84;10619059;27;20062;-78
2022/12/10 03:00:07;;;;;;;12.07;5.43;;;6.70;99.90;;;4.48;100.00;98567.22;10617949;27;20060;-78
2022/12/10 03:05:53;;;;;;;14.73;6.23;;;6.70;99.90;;;4.39;100.00;98557.72;10592002;27;20069;-78
2022/12/10 03:11:09;;;;;;;10.47;5.13;;;6.60;99.90;;;4.30;100.00;98577.13;10604964;27;20065;-78
2022/12/10 03:16:14;;;;;;;11.93;4.70;;;6.50;99.90;;;4.17;100.00;98567.13;10617959;27;20055;-78
2022/12/10 03:21:18;;;;;;;14.27;4.77;;;6.40;99.90;;;4.06;100.00;98577.16;10579317;27;20060;-78
2022/12/10 03:26:23;;;;;;;14.30;4.60;;;6.30;99.90;;;3.99;100.00;98583.09;10594085;27;20063;-78
2022/12/10 03:31:26;;;;;;;11.83;4.33;;;6.20;99.90;;;4.00;100.00;98607.56;10626005;27;20131;-78
2022/12/10 03:36:31;;;;;;;12.57;5.30;;;6.10;99.90;;;3.98;100.00;98605.09;10590848;27;20060;-77
2022/12/10 03:41:34;;;;;;;15.37;5.43;;;6.20;99.90;;;4.00;100.00;98591.78;10591434;27;20059;-78
2022/12/10 03:46:37;;;;;;;11.90;5.90;;;6.20;99.90;;;4.00;100.00;98595.25;10621171;27;20056;-78
2022/12/10 03:51:40;;;;;;;11.63;5.40;;;6.20;99.90;;;4.00;100.00;98594.41;10610229;27;20060;-78
2022/12/10 03:56:43;;;;;;;11.10;5.00;;;6.20;99.90;;;4.02;100.00;98624.00;10627038;27;20051;-78
2022/12/10 04:01:46;;;;;;;15.37;5.63;;;6.20;99.90;;;4.01;100.00;98610.00;10625641;27;20585;-78
2022/12/10 04:06:49;;;;;;;14.60;5.07;;;6.20;99.90;;;4.02;100.00;98601.16;10592735;27;20060;-77
2022/12/10 04:11:57;;;;;;;12.30;4.90;;;6.20;99.90;;;4.02;100.00;98603.81;10626143;27;20477;-78
2022/12/10 04:17:00;;;;;;;12.03;4.47;;;6.30;99.90;;;3.97;100.00;98600.03;10599072;27;20055;-78
2022/12/10 04:27:37;;;;;;;10.70;4.60;;;6.10;99.90;;;3.83;100.00;98593.59;10584626;27;20063;-78
2022/12/10 04:32:40;;;;;;;10.60;4.23;;;6.00;99.90;;;3.80;100.00;98603.63;10573864;27;20052;-78
2022/12/10 04:37:43;;;;;;;13.90;5.33;;;6.00;99.90;;;3.76;100.00;98613.63;10595121;27;20499;-78
2022/12/10 04:42:46;;;;;;;11.43;4.90;;;6.00;99.90;;;3.74;100.00;98623.50;10639585;27;20098;-78
2022/12/10 04:47:49;;;;;;;11.30;4.70;;;6.00;99.90;;;3.73;100.00;98617.41;10591634;27;20415;-78
2022/12/10 04:52:52;;;;;;;13.03;5.70;;;5.90;99.90;;;3.72;100.00;98623.66;10557545;27;20064;-77
2022/12/10 04:57:55;;;;;;;19.03;7.47;;;5.90;99.90;;;3.72;100.00;98620.22;10565740;27;20056;-78
2022/12/10 05:02:58;;;;;;;17.27;6.83;;;5.90;99.90;;;3.73;100.00;98629.72;10606297;27;20503;-78
2022/12/10 05:08:01;;;;;;;18.43;6.90;;;5.90;99.90;;;3.73;100.00;98624.47;10543198;27;20082;-77
2022/12/10 05:13:04;;;;;;;18.13;6.67;;;5.90;99.90;;;3.72;100.00;98633.34;10570504;27;20109;-78
2022/12/10 05:18:07;;;;;;;18.33;7.37;;;5.90;99.90;;;3.72;100.00;98634.16;10588760;27;20059;-77
2022/12/10 05:23:28;;;;;;;21.93;7.83;;;5.90;99.90;;;3.75;100.00;98640.91;10595547;27;20060;-77
2022/12/10 05:28:41;;;;;;;21.67;8.07;;;5.90;99.90;;;3.76;100.00;98645.97;10573443;27;20095;-78
2022/12/10 05:33:44;;;;;;;22.27;7.40;;;6.00;99.90;;;3.80;100.00;98641.22;10600241;27;20063;-77
2022/12/10 05:38:48;;;;;;;17.33;8.23;;;6.00;99.90;;;3.78;100.00;98648.47;10588788;27;20083;-77
2022/12/10 05:43:54;;;;;;;27.17;12.97;;;6.00;99.90;;;3.73;100.00;98663.88;10597381;27;20059;-77
2022/12/10 05:49:00;;;;;;;18.80;7.33;;;6.00;99.90;;;3.69;100.00;98660.75;10580378;27;20056;-77
2022/12/10 05:54:05;;;;;;;21.83;8.37;;;5.90;99.90;;;3.67;100.00;98661.91;10583573;27;20058;-77
2022/12/10 05:59:09;;;;;;;24.93;10.20;;;5.90;99.90;;;3.62;100.00;98658.94;10597141;27;20546;-78
2022/12/10 06:04:18;;;;;;;20.47;8.73;;;5.90;99.90;;;3.53;100.00;98655.44;10603262;27;20142;-77
2022/12/10 06:09:21;;;;;;;20.87;9.70;;;5.80;99.90;;;3.48;100.00;98668.28;10607572;27;20055;-76
2022/12/10 06:14:24;;;;;;;22.97;10.20;;;5.70;99.90;;;3.41;100.00;98668.06;10586728;27;20087;-77
2022/12/10 06:19:28;;;;;;;27.20;11.63;;;5.60;99.90;;;3.36;100.00;98677.41;10608429;27;20125;-77
2022/12/10 06:24:31;;;;;;;25.17;10.17;;;5.60;99.90;;;3.30;100.00;98683.28;10591273;27;20056;-77
2022/12/10 06:29:34;;;;;;;23.40;9.13;;;5.50;99.90;;;3.26;100.00;98685.41;10595876;27;20127;-77
2022/12/10 06:34:37;;;;;;;19.63;8.77;;;5.50;99.90;;;3.23;100.00;98702.28;10632654;27;20059;-77
2022/12/10 06:39:44;;;;;;;22.70;9.50;;;5.40;99.90;;;3.23;100.00;98709.34;10628740;27;20096;-77
2022/12/10 06:44:47;;;;;;;25.37;10.67;;;5.40;99.90;;;3.19;100.00;98710.66;10621603;27;20055;-77
2022/12/10 06:49:50;;;;;;;27.43;11.03;;;5.40;99.90;;;3.19;100.00;98732.47;10578563;27;20564;-77
2022/12/10 06:54:54;;;;;;;25.73;11.40;;;5.40;99.90;;;3.16;100.00;98721.47;10616756;27;20059;-76
2022/12/10 06:59:57;;;;;;;42.90;15.83;;;5.40;99.90;;;3.15;100.00;98709.31;10628858;27;20067;-77
2022/12/10 07:05:00;;;;;;;27.57;13.10;;;5.40;99.90;;;3.14;100.00;98687.50;10574979;27;20453;-76
2022/12/10 07:10:05;;;;;;;21.67;11.27;;;5.40;99.90;;;3.12;100.00;98693.88;10584106;27;20180;-77
2022/12/10 07:15:09;;;;;;;25.90;11.17;;;5.30;99.90;;;3.09;100.00;98704.69;10592312;27;20075;-77
2022/12/10 07:20:12;;;;;;;20.37;9.73;;;5.30;99.90;;;3.07;100.00;98704.03;10628717;27;20055;-77
2022/12/10 07:25:15;;;;;;;19.57;8.90;;;5.30;99.90;;;3.08;100.00;98710.94;10629489;27;20059;-77
2022/12/10 07:30:18;;;;;;;19.07;9.57;;;5.30;99.90;;;3.12;100.00;98710.47;10595102;27;20055;-77
2022/12/10 07:35:21;;;;;;;21.97;8.93;;;5.30;99.90;;;3.18;100.00;98691.47;10570119;27;20060;-77
2022/12/10 07:40:24;;;;;;;29.10;12.30;;;5.50;99.90;;;3.28;100.00;98664.25;10609158;27;20066;-83
2022/12/10 07:45:27;;;;;;;27.70;13.43;;;5.50;99.90;;;3.37;100.00;98674.63;10571182;27;20062;-79
2022/12/10 07:50:30;;;;;;;34.07;16.20;;;5.60;99.90;;;3.44;100.00;98686.13;10587494;27;20064;-78
2022/12/10 07:55:33;;;;;;;29.70;15.97;;;5.70;99.90;;;3.50;100.00;98697.81;10609187;27;20051;-79
2022/12/10 08:00:36;;;;;;;29.37;14.07;;;5.80;99.90;;;3.56;100.00;98698.97;10594315;27;20086;-79
2022/12/10 08:05:41;;;;;;;24.63;11.40;;;5.80;99.90;;;3.68;100.00;98700.31;10546515;27;20458;-80
2022/12/10 08:10:44;;;;;;;20.60;9.97;;;5.90;99.90;;;3.82;100.00;98699.69;10580168;27;20500;-79
2022/12/10 08:15:47;;;;;;;24.67;11.87;;;6.10;99.90;;;4.13;100.00;98691.19;10551580;27;20376;-78
2022/12/10 08:20:50;;;;;;;22.87;11.90;;;6.30;99.90;;;4.69;100.00;98679.00;10562524;27;20052;-78
2022/12/10 08:25:53;;;;;;;15.93;9.47;;;6.80;99.90;;;5.37;100.00;98665.28;10574482;27;20056;-78
2022/12/10 08:30:56;;;;;;;14.40;7.17;;;7.40;99.90;;;5.74;100.00;98676.94;10579580;27;20052;-78
2022/12/10 08:35:59;;;;;;;11.00;6.53;;;7.80;99.90;;;5.74;100.00;98690.94;10566262;28;20559;-78
2022/12/10 08:41:08;;;;;;;12.87;7.43;;;7.90;99.90;;;5.45;100.00;98683.69;10539908;28;20080;-77
2022/12/10 08:46:14;;;;;;;14.50;7.63;;;7.80;99.90;;;5.29;100.00;98687.22;10569959;28;20053;-77
2022/12/10 08:51:19;;;;;;;12.77;7.37;;;7.60;99.90;;;5.19;100.00;98677.88;10598117;27;20048;-77
2022/12/10 08:56:22;;;;;;;15.37;9.03;;;7.50;99.90;;;5.11;100.00;98691.91;10590297;28;20428;-77
2022/12/10 09:01:25;;;;;;;14.30;7.70;;;7.40;99.90;;;5.10;100.00;98703.44;10572047;28;20648;-78
2022/12/10 09:06:28;;;;;;;13.87;7.27;;;7.40;99.90;;;5.18;100.00;98719.19;10556141;28;20066;-78
2022/12/10 09:11:33;;;;;;;10.87;5.73;;;7.50;99.90;;;5.23;100.00;98703.72;10549520;28;20060;-78
2022/12/10 09:16:38;;;;;;;21.67;10.17;;;7.60;99.90;;;5.33;100.00;98695.59;10572013;28;20087;-78
2022/12/10 09:21:42;;;;;;;10.27;5.90;;;7.60;99.90;;;5.39;100.00;98702.81;10589221;28;20060;-78
2022/12/10 09:26:46;;;;;;;12.57;7.17;;;7.70;99.90;;;5.34;100.00;98720.97;10563968;27;20064;-78
2022/12/10 09:31:51;;;;;;;17.47;9.43;;;7.60;99.90;;;5.16;100.00;98707.16;10531369;28;20062;-78
2022/12/10 09:36:54;;;;;;;18.50;10.27;;;7.50;99.90;;;4.95;100.00;98705.09;10549037;28;20063;-77
2022/12/10 09:42:34;;;;;;;22.53;11.40;;;7.30;99.90;;;4.78;100.00;98704.31;10546726;28;20519;-78
2022/12/10 09:47:56;;;;;;;24.03;11.70;;;7.10;99.90;;;4.67;100.00;98702.00;10553858;28;20060;-78
2022/12/10 09:53:01;;;;;;;36.40;16.42;;;7.00;99.90;;;4.53;100.00;98701.72;10557382;28;20048;-78
2022/12/10 09:58:09;;;;;;;24.50;13.60;;;6.80;99.90;;;4.49;100.00;98695.13;10557295;28;20062;-78
2022/12/10 10:03:15;;;;;;;25.47;12.87;;;6.80;99.90;;;4.41;100.00;98681.16;10607283;27;20098;-78
2022/12/10 10:08:28;;;;;;;28.13;13.63;;;6.70;99.90;;;4.37;100.00;98670.16;10600340;27;20160;-77
2022/12/10 10:13:49;;;;;;;28.07;14.53;;;6.70;99.90;;;4.24;100.00;98646.97;10632616;27;20059;-78
2022/12/10 10:19:25;;;;;;;34.13;17.63;;;6.60;99.90;;;4.22;100.00;98645.53;10619048;27;20081;-77
2022/12/10 10:24:36;;;;;;;36.73;17.30;;;6.50;99.90;;;4.27;100.00;98649.28;10587862;27;20064;-78
2022/12/10 10:29:39;;;;;;;27.02;13.02;;;6.50;99.90;;;4.31;100.00;98647.13;10563050;27;20063;-77
2022/12/10 10:34:44;;;;;;;34.63;16.97;;;6.60;99.90;;;4.36;100.00;98655.34;10615484;27;20059;-77
2022/12/10 10:39:49;;;;;;;26.30;13.03;;;6.60;99.90;;;4.39;100.00;98656.84;10577861;27;20101;-78
2022/12/10 10:44:52;;;;;;;33.80;15.17;;;6.70;99.90;;;4.38;100.00;98656.03;10572530;28;20466;-78
2022/12/10 10:49:55;;;;;;;20.87;11.10;;;6.70;99.90;;;4.42;100.00;98652.06;10590233;27;20064;-77
2022/12/10 10:54:59;;;;;;;19.77;10.07;;;6.70;99.90;;;4.46;100.00;98655.19;10603196;27;20051;-77
2022/12/10 11:00:17;;;;;;;25.07;11.47;;;6.70;99.90;;;4.49;100.00;98658.28;10593143;27;20138;-77
2022/12/10 11:05:25;;;;;;;19.67;10.03;;;6.80;99.90;;;4.55;100.00;98651.56;10582387;27;20067;-78
2022/12/10 11:10:38;;;;;;;17.73;9.00;;;6.80;99.90;;;4.56;100.00;98654.03;10589351;27;20146;-77
2022/12/10 11:15:41;;;;;;;16.27;8.50;;;6.90;99.90;;;4.59;100.00;98654.69;10583233;27;20064;-76
2022/12/10 11:21:02;;;;;;;19.97;9.90;;;6.90;99.90;;;4.60;100.00;98654.50;10610533;27;20055;-77
2022/12/10 11:26:29;;;;;;;19.55;10.75;;;6.90;99.90;;;4.61;100.00;98640.34;10599899;27;20146;-77
2022/12/10 11:31:32;;;;;;;19.93;9.60;;;6.90;99.90;;;4.62;100.00;98630.66;10562921;27;20055;-77
2022/12/10 11:37:03;;;;;;;15.57;8.63;;;6.90;99.90;;;4.61;100.00;98621.94;10640932;27;20097;-77
2022/12/10 11:42:18;;;;;;;15.50;8.27;;;6.90;99.90;;;4.59;100.00;98615.22;10571524;27;20059;-77
2022/12/10 11:47:50;;;;;;;21.97;11.90;;;6.90;99.90;;;4.54;100.00;98598.13;10564006;27;20052;-77
2022/12/10 11:52:59;;;;;;;34.50;15.77;;;6.80;99.90;;;4.42;100.00;98601.28;10617368;27;20060;-78
2022/12/10 11:58:34;;;;;;;24.43;12.47;;;6.70;99.90;;;4.30;100.00;98585.03;10588780;27;20063;-78
2022/12/10 12:04:18;;;;;;;30.63;15.47;;;6.60;99.90;;;4.18;100.00;98583.72;10597451;27;20069;-77
2022/12/10 12:10:09;;;;;;;28.07;14.70;;;6.50;99.90;;;4.10;100.00;98568.78;10578061;27;20059;-77
2022/12/10 12:15:17;;;;;;;36.87;17.93;;;6.40;99.90;;;4.03;100.00;98568.63;10591166;27;20067;-77
2022/12/10 12:20:46;;;;;;;38.93;18.20;;;6.30;99.90;;;3.97;100.00;98566.66;10554619;27;20055;-77
2022/12/10 12:26:05;;;;;;;31.00;15.63;;;6.20;99.90;;;3.92;100.00;98555.84;10602839;27;20063;-77
2022/12/10 12:31:16;;;;;;;33.60;16.20;;;6.20;99.90;;;3.88;100.00;98557.13;10582091;27;20071;-78
2022/12/10 12:36:29;;;;;;;26.60;12.83;;;6.20;99.90;;;3.85;100.00;98556.66;10594221;27;20445;-77
2022/12/10 12:42:07;;;;;;;28.73;14.33;;;6.10;99.90;;;3.80;100.00;98551.91;10563869;27;20082;-77
2022/12/10 12:47:50;;;;;;;23.70;11.50;;;6.00;99.90;;;3.72;100.00;98550.09;10538829;27;20056;-77
2022/12/10 12:52:57;;;;;;;21.05;11.10;;;6.00;99.90;;;3.63;100.00;98558.94;10596562;27;20060;-79
2022/12/10 12:58:35;;;;;;;16.70;8.97;;;5.90;99.90;;;3.56;100.00;98557.16;10621020;27;20064;-77
2022/12/10 13:03:44;;;;;;;18.47;9.00;;;5.80;99.90;;;3.51;100.00;98569.94;10631576;27;20091;-77
2022/12/10 13:09:12;;;;;;;19.30;10.00;;;5.70;99.90;;;3.47;100.00;98567.63;10590367;27;20064;-77
2022/12/10 13:14:30;;;;;;;18.80;9.53;;;5.70;99.90;;;3.41;100.00;98570.91;10617981;27;20051;-77
2022/12/10 13:19:34;;;;;;;23.80;10.33;;;5.60;99.90;;;3.36;100.00;98581.09;10609617;27;20083;-78
2022/12/10 13:24:37;;;;;;;21.23;10.67;;;5.60;99.90;;;3.32;100.00;98585.00;10586717;27;20066;-78
2022/12/10 13:30:06;;;;;;;28.33;13.40;;;5.60;99.90;;;3.29;100.00;98580.06;10610811;27;20063;-78
2022/12/10 13:35:14;;;;;;;22.50;11.27;;;5.50;99.90;;;3.26;100.00;98577.78;10618057;27;20052;-79
2022/12/10 13:46:26;;;;;;;23.83;11.00;;;5.50;99.90;;;3.24;100.00;98566.63;10582891;27;20451;-78
2022/12/10 13:51:50;;;;;;;22.53;11.03;;;5.50;99.90;;;3.23;100.00;98570.22;10591190;27;20258;-78
2022/12/10 13:57:27;;;;;;;26.03;13.07;;;5.50;99.90;;;3.22;100.00;98568.56;10612754;27;20055;-78
2022/12/10 14:03:09;;;;;;;31.43;13.70;;;5.50;99.90;;;3.25;100.00;98563.00;10584666;27;20125;-78
2022/12/10 14:08:25;;;;;;;21.65;11.20;;;5.50;99.90;;;3.27;100.00;98554.97;10589896;27;20056;-78
2022/12/10 14:13:57;;;;;;;33.60;15.30;;;5.50;99.90;;;3.26;100.00;98551.53;10582611;27;20063;-78
2022/12/10 14:19:06;;;;;;;38.83;17.38;;;5.50;99.90;;;3.25;100.00;98562.19;10558326;27;20051;-77
2022/12/10 14:24:34;;;;;;;35.50;17.23;;;5.50;99.90;;;3.22;100.00;98556.28;10595222;27;20066;-76
2022/12/10 14:29:42;;;;;;;30.13;14.80;;;5.50;99.90;;;3.19;100.00;98559.22;10597423;27;20069;-76
2022/12/10 14:34:59;;;;;;;27.57;13.80;;;5.50;99.90;;;3.20;100.00;98562.69;10583419;27;20063;-79
2022/12/10 14:40:06;;;;;;;27.50;13.10;;;5.50;99.90;;;3.16;100.00;98553.47;10609155;27;20101;-79
2022/12/10 14:45:15;;;;;;;19.97;10.70;;;5.40;99.90;;;3.14;100.00;98550.19;10599752;27;20063;-77
2022/12/10 14:50:18;;;;;;;22.47;11.13;;;5.40;99.90;;;3.12;100.00;98557.38;10629654;27;20075;-78
2022/12/10 14:55:23;;;;;;;22.87;11.57;;;5.40;99.90;;;3.09;100.00;98550.66;10596120;27;20396;-79
2022/12/10 15:00:27;;;;;;;21.90;11.43;;;5.40;99.90;;;3.09;100.00;98560.34;10598309;27;20063;-79
2022/12/10 15:05:32;;;;;;;25.77;12.17;;;5.30;99.90;;;3.06;100.00;98545.75;10597736;27;20055;-79
2022/12/10 15:10:45;;;;;;;20.30;10.83;;;5.30;99.90;;;3.05;100.00;98545.88;10601406;27;20074;-78
2022/12/10 15:15:51;;;;;;;24.03;10.77;;;5.30;99.90;;;3.05;100.00;98548.50;10584720;27;20685;-78
2022/12/10 15:21:19;;;;;;;23.70;12.27;;;5.30;99.90;;;3.06;100.00;98537.03;10602391;27;20058;-78
2022/12/10 15:26:28;;;;;;;25.90;13.70;;;5.30;99.90;;;3.07;100.00;98539.50;10600305;27;20063;-78
2022/12/10 15:31:31;;;;;;;17.40;9.13;;;5.40;99.90;;;3.09;100.00;98532.28;10594261;27;20527;-78
2022/12/10 15:36:39;;;;;;;23.73;11.27;;;5.40;99.90;;;3.10;100.00;98523.44;10591490;27;20059;-77
2022/12/10 15:41:48;;;;;;;18.60;9.83;;;5.40;99.90;;;3.12;100.00;98515.38;10576151;27;20062;-77
2022/12/10 15:47:17;;;;;;;22.23;11.03;;;5.40;99.90;;;3.13;100.00;98507.38;10602426;27;20138;-77
2022/12/10 15:52:27;;;;;;;15.53;8.83;;;5.40;99.90;;;3.17;100.00;98518.34;10593484;27;20082;-77
2022/12/10 15:57:38;;;;;;;17.10;9.03;;;5.40;99.90;;;3.20;100.00;98512.81;10601246;27;20521;-80
2022/12/10 16:02:47;;;;;;;14.20;7.33;;;5.50;99.90;;;3.23;100.00;98507.22;10607256;27;20059;-80
2022/12/10 16:07:54;;;;;;;17.07;9.13;;;5.50;99.90;;;3.25;100.00;98500.00;10601848;27;20060;-84
2022/12/10 16:13:05;;;;;;;13.00;7.57;;;5.50;99.90;;;3.28;100.00;98490.97;10589771;27;20152;-83
2022/12/10 16:18:10;;;;;;;23.05;11.88;;;5.60;99.90;;;3.32;100.00;98487.88;10591010;27;20109;-79
2022/12/10 16:23:14;;;;;;;20.40;9.90;;;5.60;99.90;;;3.33;100.00;98484.25;10559280;27;20139;-85
2022/12/10 16:28:20;;;;;;;20.90;10.93;;;5.60;99.90;;;3.34;100.00;98469.31;10596424;27;20059;-83
2022/12/10 16:33:26;;;;;;;16.43;9.03;;;5.70;99.90;;;3.37;100.00;98469.81;10577060;27;20162;-86
2022/12/10 16:38:29;;;;;;;12.23;7.43;;;5.60;99.90;;;3.40;100.00;98460.78;10626770;27;20062;-88
2022/12/10 16:43:32;;;;;;;17.73;10.07;;;5.70;99.90;;;3.39;100.00;98448.66;10594156;27;20109;-95
2022/12/10 16:48:35;;;;;;;23.33;13.23;;;5.70;99.90;;;3.42;100.00;98449.16;10585703;27;20113;-86
2022/12/10 16:53:38;;;;;;;32.63;15.50;;;5.70;99.90;;;3.45;100.00;98455.88;10586493;27;20055;-84
2022/12/10 16:58:43;;;;;;;25.53;12.27;;;5.80;99.90;;;3.46;100.00;98453.06;10597542;27;20476;-84
2022/12/10 17:03:48;;;;;;;22.90;12.90;;;5.80;99.90;;;3.48;100.00;98443.25;10577087;27;20424;-86
2022/12/10 17:08:51;;;;;;;20.53;11.87;;;5.80;99.90;;;3.49;100.00;98426.50;10589819;27;20056;-88
2022/12/10 17:13:54;;;;;;;21.57;11.77;;;5.80;99.90;;;3.52;100.00;98425.31;10553205;27;20059;-86
2022/12/10 17:18:57;;;;;;;23.07;12.90;;;5.80;99.90;;;3.54;100.00;98425.16;10602410;27;20099;-87
2022/12/10 17:24:00;;;;;;;22.93;11.60;;;5.90;99.90;;;3.55;100.00;98426.81;10591739;27;20067;-87
2022/12/10 17:29:25;;;;;;;20.90;9.10;;;5.90;99.90;;;3.55;100.00;98418.94;10582480;27;20117;-87
2022/12/10 17:34:29;;;;;;;16.23;8.07;;;5.90;99.90;;;3.56;100.00;98407.44;10589956;27;20090;-87
2022/12/10 17:39:32;;;;;;;20.80;11.80;;;5.80;99.90;;;3.56;100.00;98396.94;10568639;27;20052;-87
2022/12/10 17:44:36;;;;;;;23.67;14.50;;;5.80;99.90;;;3.56;100.00;98397.75;10603900;27;20060;-87
2022/12/10 17:49:39;;;;;;;22.97;12.43;;;5.80;99.90;;;3.56;100.00;98386.44;10588813;27;20082;-86
2022/12/10 17:54:43;;;;;;;20.60;11.73;;;5.80;99.90;;;3.57;100.00;98383.63;10602115;27;20062;-87
2022/12/10 17:59:46;;;;;;;21.20;10.63;;;5.80;99.90;;;3.60;100.00;98377.22;10604309;27;20132;-86
2022/12/10 18:04:49;;;;;;;17.90;8.30;;;5.80;99.90;;;3.61;100.00;98374.44;10600583;27;20380;-86
2022/12/10 18:09:52;;;;;;;18.13;8.87;;;5.90;99.90;;;3.64;100.00;98362.75;10590360;27;20448;-86
2022/12/10 18:14:55;;;;;;;20.50;10.30;;;5.90;99.90;;;3.66;100.00;98363.44;10572286;27;20060;-89
2022/12/10 18:19:58;;;;;;;22.60;10.60;;;5.90;99.90;;;3.72;100.00;98357.50;10635392;27;20056;-88
2022/12/10 18:25:01;;;;;;;17.30;9.20;;;6.00;99.90;;;3.75;100.00;98349.28;10595989;27;20080;-89
2022/12/10 18:30:05;;;;;;;13.07;6.60;;;6.00;99.90;;;3.81;100.00;98340.72;10591375;27;20059;-87
2022/12/10 18:35:09;;;;;;;9.97;5.27;;;6.00;99.90;;;3.87;100.00;98337.41;10583559;27;20532;-88
2022/12/10 18:40:20;;;;;;;11.00;5.70;;;6.10;99.90;;;3.92;100.00;98335.09;10606905;27;20420;-87
2022/12/10 18:45:23;;;;;;;9.93;6.93;;;6.20;99.90;;;3.98;100.00;98323.88;10593860;27;20056;-87
2022/12/10 18:50:28;;;;;;;11.83;6.50;;;6.20;99.90;;;4.03;100.00;98321.56;10627960;27;20051;-87
2022/12/10 18:55:32;;;;;;;11.87;6.57;;;6.30;99.90;;;4.07;100.00;98311.50;10586265;27;20503;-88
2022/12/10 19:00:35;;;;;;;11.60;6.87;;;6.30;99.90;;;4.08;100.00;98307.91;10624759;27;20762;-89
2022/12/10 19:05:38;;;;;;;15.27;7.57;;;6.30;99.90;;;4.10;100.00;98307.72;10594004;27;20150;-88
2022/12/10 19:10:41;;;;;;;15.07;7.30;;;6.30;99.90;;;4.11;100.00;98304.94;10604965;27;20067;-88
2022/12/10 19:15:44;;;;;;;11.53;5.83;;;6.30;99.90;;;4.13;100.00;98300.31;10631672;27;20056;-88
2022/12/10 19:20:50;;;;;;;10.30;5.60;;;6.40;99.90;;;4.16;100.00;98296.53;10576674;27;20051;-87
2022/12/10 19:25:59;;;;;;;9.80;4.93;;;6.40;99.90;;;4.19;100.00;98293.53;10586976;27;20538;-90
2022/12/10 19:31:01;;;;;;;11.87;5.50;;;6.40;99.90;;;4.21;100.00;98288.94;10622730;27;20070;-89
2022/12/10 19:36:24;;;;;;;10.50;5.53;;;6.40;99.90;;;4.24;100.00;98272.81;10589500;27;20052;-87
2022/12/10 19:41:30;;;;;;;10.17;5.50;;;6.50;99.90;;;4.23;100.00;98269.38;10594850;27;20052;-88
2022/12/10 19:46:33;;;;;;;12.20;6.33;;;6.40;99.90;;;4.23;100.00;98264.09;10587022;27;20065;-91
2022/12/10 19:51:36;;;;;;;11.20;4.60;;;6.40;99.90;;;4.21;100.00;98262.66;10593628;27;20059;-94
2022/12/10 19:56:41;;;;;;;8.50;4.20;;;6.40;99.90;;;4.18;100.00;98255.91;10608184;27;20416;-91
2022/12/10 20:01:45;;;;;;;6.90;4.43;;;6.40;99.90;;;4.17;100.00;98237.69;10572238;27;20080;-88
2022/12/10 20:06:49;;;;;;;7.87;4.23;;;6.40;99.90;;;4.19;100.00;98246.22;10627873;27;20070;-92
2022/12/10 20:11:52;;;;;;;9.13;5.17;;;6.40;99.90;;;4.19;100.00;98240.97;10622480;27;20419;-93
2022/12/10 20:16:55;;;;;;;7.83;4.63;;;6.40;99.90;;;4.19;100.00;98235.69;10577797;27;20442;-87
2022/12/10 20:21:58;;;;;;;7.53;4.10;;;6.40;99.90;;;4.21;100.00;98244.25;10588903;27;20052;-87
2022/12/10 20:27:01;;;;;;;7.20;4.33;;;6.40;99.90;;;4.20;100.00;98240.81;10608281;27;20055;-89
2022/12/10 20:32:05;;;;;;;8.90;4.10;;;6.40;99.90;;;4.21;100.00;98233.72;10591736;27;20059;-89
2022/12/10 20:37:12;;;;;;;7.43;4.10;;;6.40;99.90;;;4.21;100.00;98220.59;10585688;27;20087;-90
2022/12/10 20:42:15;;;;;;;8.57;4.30;;;6.40;99.90;;;4.18;100.00;98218.28;10599129;27;20504;-90
2022/12/10 20:47:18;;;;;;;9.00;4.83;;;6.40;99.90;;;4.21;100.00;98217.97;10597590;27;20078;-90
2022/12/10 20:52:21;;;;;;;10.27;4.60;;;6.40;99.90;;;4.19;100.00;98214.66;10589621;27;20511;-90
2022/12/10 20:57:23;;;;;;;6.53;3.83;;;6.40;99.90;;;4.18;100.00;98216.47;10577838;27;20117;-90
2022/12/10 21:02:27;;;;;;;10.77;5.77;;;6.40;99.90;;;4.19;100.00;98198.91;10623069;27;20534;-91
2022/12/10 21:07:30;;;;;;;7.77;4.50;;;6.40;99.90;;;4.21;100.00;98199.56;10626057;27;20086;-88
2022/12/10 21:12:33;;;;;;;6.50;4.10;;;6.40;99.90;;;4.19;100.00;98193.63;10602172;27;20074;-93
2022/12/10 21:17:36;;;;;;;5.73;3.40;;;6.40;99.90;;;4.18;100.00;98184.94;10612809;27;20056;-91
2022/12/10 21:22:39;;;;;;;5.93;3.80;;;6.40;99.90;;;4.21;100.00;98191.66;10602870;27;20083;-93
2022/12/10 21:27:43;;;;;;;5.97;3.43;;;6.40;99.90;;;4.19;100.00;98194.44;10614552;27;20426;-87
2022/12/10 21:32:46;;;;;;;6.50;3.10;;;6.40;99.90;;;4.19;100.00;98191.00;10578871;27;20062;-88